Time;durP1;ratioP1;P1;durP2;ratioP2;P2;SDS_P1;SDS_P2;PMS_P1;PMS_P2;Temp;Humidity;BMP_temperature;BMP_pressure;BME280_temperature;BME280_humidity;BME280_pressure;Samples;Min_cycle;Max_cycle;Signal;HPM_P1;HPM_P2
2023/12/06 00:01:32;;;;;;;85.70;35.33;;;;;;;;;;5012427;28;20041;-82
2023/12/06 00:04:17;;;;;;;76.82;35.65;;;;;;;;;;5012400;28;20453;-82
2023/12/06 00:07:01;;;;;;;88.60;38.20;;;;;;;;;;5012309;28;20096;-83
2023/12/06 00:09:45;;;;;;;93.68;39.97;;;;;;;;;;5003991;28;20128;-81
2023/12/06 00:12:30;;;;;;;83.28;36.40;;;;;;;;;;5008690;28;20501;-81
2023/12/06 00:15:15;;;;;;;91.68;39.38;;;;;;;;;;5011357;28;20049;-81
2023/12/06 00:18:00;;;;;;;89.60;37.80;;;;;;;;;;5010693;28;20032;-81
2023/12/06 00:20:44;;;;;;;96.15;39.55;;;;;;;;;;5010513;28;20080;-82
2023/12/06 00:23:29;;;;;;;91.70;38.28;;;;;;;;;;5011182;28;20100;-82
2023/12/06 00:26:13;;;;;;;96.35;39.35;;;;;;;;;;5011968;28;20505;-82
2023/12/06 00:28:58;;;;;;;99.35;38.70;;;;;;;;;;5011638;28;20741;-82
2023/12/06 00:31:42;;;;;;;88.38;38.47;;;;;;;;;;5011487;28;20119;-82
2023/12/06 00:34:27;;;;;;;103.93;41.08;;;;;;;;;;5011870;28;20133;-82
2023/12/06 00:37:11;;;;;;;92.25;40.17;;;;;;;;;;5012028;28;20092;-81
2023/12/06 00:39:56;;;;;;;99.32;40.83;;;;;;;;;;5011243;28;20068;-82
2023/12/06 00:42:40;;;;;;;103.25;40.67;;;;;;;;;;5011416;28;20449;-84
2023/12/06 00:45:25;;;;;;;87.32;38.10;;;;;;;;;;5004625;28;20518;-82
2023/12/06 00:48:09;;;;;;;97.72;41.30;;;;;;;;;;5007773;28;20049;-81
2023/12/06 00:50:54;;;;;;;98.15;40.35;;;;;;;;;;5011303;28;20061;-82
2023/12/06 00:53:38;;;;;;;107.38;41.08;;;;;;;;;;5010629;28;20049;-82
2023/12/06 00:56:23;;;;;;;107.57;41.45;;;;;;;;;;5012046;28;20100;-82
2023/12/06 00:59:07;;;;;;;100.97;39.90;;;;;;;;;;5011700;28;20100;-82
2023/12/06 01:01:52;;;;;;;98.25;39.95;;;;;;;;;;5010132;28;20184;-82
2023/12/06 01:04:37;;;;;;;108.63;39.95;;;;;;;;;;5011612;28;20088;-82
2023/12/06 01:07:22;;;;;;;104.80;39.67;;;;;;;;;;5011580;28;20100;-82
2023/12/06 01:10:07;;;;;;;100.28;41.03;;;;;;;;;;5000489;28;20081;-82
2023/12/06 01:12:51;;;;;;;97.47;38.72;;;;;;;;;;5010452;28;20041;-82
2023/12/06 01:15:36;;;;;;;93.72;39.03;;;;;;;;;;5011590;28;20108;-82
2023/12/06 01:18:20;;;;;;;110.65;42.90;;;;;;;;;;5011566;28;20088;-82
2023/12/06 01:21:05;;;;;;;107.63;39.00;;;;;;;;;;5010843;28;20036;-82
2023/12/06 01:23:49;;;;;;;109.22;40.45;;;;;;;;;;5010972;28;20416;-81
2023/12/06 01:26:34;;;;;;;109.43;41.92;;;;;;;;;;5011536;28;20053;-81
2023/12/06 01:29:19;;;;;;;119.38;40.35;;;;;;;;;;5011166;28;20079;-81
2023/12/06 01:32:04;;;;;;;124.53;41.45;;;;;;;;;;5010869;28;20052;-82
2023/12/06 01:34:48;;;;;;;107.32;40.13;;;;;;;;;;5009707;28;20056;-82
2023/12/06 01:37:33;;;;;;;108.10;40.22;;;;;;;;;;5013194;28;20085;-82
2023/12/06 01:40:18;;;;;;;122.55;40.72;;;;;;;;;;5015050;28;20064;-82
2023/12/06 01:43:03;;;;;;;100.75;40.90;;;;;;;;;;5014339;28;20544;-82
2023/12/06 01:45:47;;;;;;;115.65;39.20;;;;;;;;;;5014704;28;20117;-86
2023/12/06 01:48:32;;;;;;;119.40;40.95;;;;;;;;;;5014734;28;20478;-82
2023/12/06 01:51:18;;;;;;;105.97;38.95;;;;;;;;;;5014917;28;20055;-83
2023/12/06 01:54:03;;;;;;;123.82;42.10;;;;;;;;;;5003113;28;20541;-82
2023/12/06 01:56:47;;;;;;;120.82;40.35;;;;;;;;;;5014301;28;20115;-85
2023/12/06 01:59:33;;;;;;;107.75;38.58;;;;;;;;;;5014856;28;20173;-82
2023/12/06 02:02:17;;;;;;;121.30;39.55;;;;;;;;;;5014792;28;20676;-82
2023/12/06 02:05:02;;;;;;;114.65;41.17;;;;;;;;;;5014009;28;20125;-82
2023/12/06 02:07:48;;;;;;;115.18;40.08;;;;;;;;;;5014696;28;20449;-82
2023/12/06 02:10:33;;;;;;;131.27;39.42;;;;;;;;;;5000798;28;20053;-82
2023/12/06 02:13:17;;;;;;;117.95;40.92;;;;;;;;;;5014517;28;20451;-83
2023/12/06 02:16:02;;;;;;;111.78;40.03;;;;;;;;;;5013910;28;20076;-81
2023/12/06 02:18:46;;;;;;;114.03;38.75;;;;;;;;;;5014447;28;20049;-81
2023/12/06 02:21:31;;;;;;;110.47;39.65;;;;;;;;;;5014386;28;20144;-81
2023/12/06 02:24:16;;;;;;;106.90;37.65;;;;;;;;;;5013971;28;20442;-81
2023/12/06 02:27:01;;;;;;;111.10;39.20;;;;;;;;;;5013829;28;20037;-82
2023/12/06 02:29:45;;;;;;;111.45;39.00;;;;;;;;;;5014013;28;20037;-82
2023/12/06 02:32:30;;;;;;;100.38;36.70;;;;;;;;;;5014154;28;20041;-83
2023/12/06 02:35:17;;;;;;;105.78;36.60;;;;;;;;;;5013536;28;20061;-82
2023/12/06 02:38:02;;;;;;;100.15;36.50;;;;;;;;;;5013458;28;20135;-82
2023/12/06 02:40:48;;;;;;;90.13;35.85;;;;;;;;;;5013036;28;20067;-81
2023/12/06 02:43:33;;;;;;;94.75;36.10;;;;;;;;;;5014054;28;20076;-82
2023/12/06 02:46:17;;;;;;;98.22;37.10;;;;;;;;;;5013574;28;20556;-82
2023/12/06 02:49:02;;;;;;;88.72;34.20;;;;;;;;;;5011960;28;20430;-82
2023/12/06 02:51:47;;;;;;;93.78;33.58;;;;;;;;;;5013588;28;20508;-81
2023/12/06 02:54:32;;;;;;;93.07;35.28;;;;;;;;;;5013441;28;20390;-80
2023/12/06 02:57:16;;;;;;;90.50;34.72;;;;;;;;;;5012134;28;20087;-82
2023/12/06 03:00:01;;;;;;;92.97;36.25;;;;;;;;;;5013072;28;20181;-82
2023/12/06 03:02:45;;;;;;;79.85;33.67;;;;;;;;;;5013671;28;20044;-82
2023/12/06 03:05:30;;;;;;;90.65;36.67;;;;;;;;;;5013341;28;20037;-82
2023/12/06 03:08:14;;;;;;;82.70;33.20;;;;;;;;;;5013027;28;20118;-81
2023/12/06 03:10:59;;;;;;;83.88;35.17;;;;;;;;;;5000322;28;20132;-82
2023/12/06 03:13:44;;;;;;;82.90;33.50;;;;;;;;;;4992852;28;20046;-82
2023/12/06 03:16:28;;;;;;;80.88;33.75;;;;;;;;;;4997140;28;20174;-82
2023/12/06 03:19:13;;;;;;;74.15;33.30;;;;;;;;;;5000121;28;20045;-82
2023/12/06 03:21:57;;;;;;;80.72;32.88;;;;;;;;;;5002309;28;20044;-84
2023/12/06 03:24:42;;;;;;;85.80;34.83;;;;;;;;;;5012075;28;20045;-82
2023/12/06 03:27:27;;;;;;;84.97;32.92;;;;;;;;;;5012212;28;20505;-82
2023/12/06 03:30:12;;;;;;;80.38;33.83;;;;;;;;;;5011522;28;20057;-83
2023/12/06 03:32:57;;;;;;;81.82;33.35;;;;;;;;;;5012789;28;20410;-85
2023/12/06 03:35:42;;;;;;;83.28;33.67;;;;;;;;;;5013083;28;20049;-82
2023/12/06 03:38:26;;;;;;;75.68;32.83;;;;;;;;;;5012781;28;20041;-82
2023/12/06 03:41:11;;;;;;;86.45;34.42;;;;;;;;;;5012326;28;20140;-82
2023/12/06 03:43:55;;;;;;;73.53;32.53;;;;;;;;;;5012891;28;20116;-82
2023/12/06 03:46:40;;;;;;;76.22;32.25;;;;;;;;;;4997685;28;20066;-82
2023/12/06 03:49:24;;;;;;;71.60;32.80;;;;;;;;;;5012325;28;20121;-82
2023/12/06 03:52:09;;;;;;;72.00;31.75;;;;;;;;;;5012017;28;20068;-83
2023/12/06 03:54:54;;;;;;;68.85;30.80;;;;;;;;;;5012409;28;20418;-82
2023/12/06 03:57:38;;;;;;;70.88;31.25;;;;;;;;;;5011534;28;20103;-83
2023/12/06 04:00:24;;;;;;;78.20;32.85;;;;;;;;;;5010525;28;20802;-82
2023/12/06 04:03:08;;;;;;;77.60;32.63;;;;;;;;;;5011994;28;20044;-82
2023/12/06 04:05:53;;;;;;;83.53;33.25;;;;;;;;;;5012324;28;20424;-83
2023/12/06 04:08:38;;;;;;;72.65;30.75;;;;;;;;;;5012305;28;20117;-82
2023/12/06 04:11:22;;;;;;;71.57;31.67;;;;;;;;;;5011829;28;20056;-82
2023/12/06 04:14:07;;;;;;;73.88;32.90;;;;;;;;;;5010685;28;20442;-82
2023/12/06 04:16:52;;;;;;;72.65;33.28;;;;;;;;;;5012311;28;20064;-82
2023/12/06 04:19:38;;;;;;;81.82;33.90;;;;;;;;;;5006326;28;20498;-81
2023/12/06 04:22:22;;;;;;;77.95;31.38;;;;;;;;;;5005302;28;20127;-81
2023/12/06 04:25:07;;;;;;;78.38;32.00;;;;;;;;;;5011597;28;20052;-82
2023/12/06 04:27:52;;;;;;;71.43;31.05;;;;;;;;;;5011860;28;20037;-82
2023/12/06 04:30:36;;;;;;;75.50;32.10;;;;;;;;;;5011941;28;20057;-82
2023/12/06 04:33:21;;;;;;;76.00;31.95;;;;;;;;;;5010390;28;20060;-82
2023/12/06 04:36:06;;;;;;;68.60;30.73;;;;;;;;;;5011526;28;20045;-85
2023/12/06 04:38:51;;;;;;;74.32;30.38;;;;;;;;;;5010959;28;20072;-82
2023/12/06 04:41:35;;;;;;;70.45;31.40;;;;;;;;;;5011590;28;20060;-82
2023/12/06 04:44:20;;;;;;;65.22;29.45;;;;;;;;;;5011407;28;20149;-82
2023/12/06 04:47:05;;;;;;;66.47;29.65;;;;;;;;;;5010879;28;20460;-82
2023/12/06 04:49:49;;;;;;;69.30;29.85;;;;;;;;;;5011431;28;20449;-82
2023/12/06 04:52:34;;;;;;;64.60;30.52;;;;;;;;;;5011818;28;20088;-82
2023/12/06 04:55:19;;;;;;;62.70;29.00;;;;;;;;;;5010903;28;20085;-82
2023/12/06 04:58:04;;;;;;;68.55;29.83;;;;;;;;;;5011537;28;20037;-82
2023/12/06 05:00:50;;;;;;;68.57;29.17;;;;;;;;;;5011699;28;20072;-82
2023/12/06 05:03:35;;;;;;;68.78;30.52;;;;;;;;;;5011576;28;20037;-82
2023/12/06 05:06:19;;;;;;;60.67;29.05;;;;;;;;;;5011135;28;20040;-82
2023/12/06 05:09:05;;;;;;;66.18;28.95;;;;;;;;;;4991213;28;20045;-82
2023/12/06 05:11:51;;;;;;;65.88;29.60;;;;;;;;;;5009259;28;20052;-82
2023/12/06 05:14:36;;;;;;;62.33;29.13;;;;;;;;;;5015671;28;20161;-82
2023/12/06 05:17:21;;;;;;;59.55;26.95;;;;;;;;;;5013902;28;20041;-82
2023/12/06 05:20:06;;;;;;;67.55;29.38;;;;;;;;;;5015510;28;20092;-82
2023/12/06 05:22:51;;;;;;;55.22;25.92;;;;;;;;;;5015365;28;20145;-82
2023/12/06 05:25:35;;;;;;;59.13;26.95;;;;;;;;;;5015175;28;20049;-82
2023/12/06 05:28:20;;;;;;;60.08;28.08;;;;;;;;;;5013979;28;20044;-82
2023/12/06 05:31:04;;;;;;;63.63;28.27;;;;;;;;;;5014161;28;20080;-82
2023/12/06 05:33:49;;;;;;;56.45;27.30;;;;;;;;;;5015340;28;20143;-82
2023/12/06 05:36:34;;;;;;;54.90;26.63;;;;;;;;;;5014593;28;20095;-82
2023/12/06 05:39:18;;;;;;;51.97;25.67;;;;;;;;;;5014751;28;20049;-83
2023/12/06 05:42:03;;;;;;;57.95;27.23;;;;;;;;;;5015107;28;20100;-82
2023/12/06 05:44:48;;;;;;;63.85;27.40;;;;;;;;;;5013944;28;20073;-82
2023/12/06 05:47:32;;;;;;;61.05;27.27;;;;;;;;;;5014505;28;20040;-82
2023/12/06 05:50:17;;;;;;;66.13;27.58;;;;;;;;;;5013376;28;20076;-83
2023/12/06 05:53:03;;;;;;;65.53;29.23;;;;;;;;;;5014793;28;20045;-82
2023/12/06 05:55:48;;;;;;;58.50;27.70;;;;;;;;;;5013741;28;20080;-82
2023/12/06 05:58:33;;;;;;;58.55;28.17;;;;;;;;;;5014163;28;20037;-82
2023/12/06 06:01:17;;;;;;;58.42;28.30;;;;;;;;;;5014359;28;20049;-83
2023/12/06 06:04:02;;;;;;;60.45;27.40;;;;;;;;;;5014827;28;20088;-82
2023/12/06 06:06:47;;;;;;;54.22;26.45;;;;;;;;;;5014568;28;20041;-83
2023/12/06 06:09:31;;;;;;;67.15;27.70;;;;;;;;;;5013082;28;20044;-83
2023/12/06 06:12:16;;;;;;;54.03;26.73;;;;;;;;;;5014355;28;20550;-86
2023/12/06 06:15:00;;;;;;;59.95;27.00;;;;;;;;;;5014654;28;20104;-83
2023/12/06 06:17:45;;;;;;;62.28;28.25;;;;;;;;;;5003257;28;20041;-82
2023/12/06 06:20:30;;;;;;;61.22;28.55;;;;;;;;;;5000964;28;20046;-82
2023/12/06 06:23:14;;;;;;;61.78;27.17;;;;;;;;;;5001995;28;20449;-83
2023/12/06 06:26:00;;;;;;;56.35;27.05;;;;;;;;;;5014122;28;20049;-83
2023/12/06 06:28:44;;;;;;;63.30;26.98;;;;;;;;;;5013342;28;20060;-82
2023/12/06 06:31:29;;;;;;;54.45;26.60;;;;;;;;;;5013628;28;20041;-82
2023/12/06 06:34:13;;;;;;;56.03;28.17;;;;;;;;;;5013968;28;20410;-83
2023/12/06 06:36:58;;;;;;;61.85;27.13;;;;;;;;;;5014247;28;20080;-83
2023/12/06 06:39:42;;;;;;;56.00;26.58;;;;;;;;;;5013422;28;20107;-84
2023/12/06 06:42:27;;;;;;;58.78;27.35;;;;;;;;;;5013638;28;20068;-83
2023/12/06 06:45:11;;;;;;;54.97;26.45;;;;;;;;;;5014070;28;20091;-84
2023/12/06 06:47:56;;;;;;;63.58;27.65;;;;;;;;;;5012873;28;20084;-85
2023/12/06 06:50:41;;;;;;;57.10;29.33;;;;;;;;;;5013357;28;20269;-85
2023/12/06 06:53:25;;;;;;;58.10;27.60;;;;;;;;;;5012220;28;20087;-85
2023/12/06 06:56:11;;;;;;;57.20;27.85;;;;;;;;;;5013720;28;20065;-85
2023/12/06 06:58:55;;;;;;;54.10;28.48;;;;;;;;;;5006454;28;20037;-85
2023/12/06 07:01:40;;;;;;;54.45;26.60;;;;;;;;;;4990988;28;20104;-85
2023/12/06 07:04:25;;;;;;;54.35;26.02;;;;;;;;;;5013333;28;20064;-86
2023/12/06 07:07:09;;;;;;;53.58;27.75;;;;;;;;;;5013514;28;20041;-85
2023/12/06 07:09:54;;;;;;;57.95;26.33;;;;;;;;;;5013492;28;20037;-85
2023/12/06 07:12:39;;;;;;;59.70;27.15;;;;;;;;;;5001835;28;20041;-85
2023/12/06 07:15:25;;;;;;;59.83;28.50;;;;;;;;;;5013224;28;20057;-87
2023/12/06 07:18:10;;;;;;;51.60;26.27;;;;;;;;;;5000738;28;20133;-86
2023/12/06 07:20:54;;;;;;;51.70;25.90;;;;;;;;;;4993755;28;20100;-86
2023/12/06 07:23:40;;;;;;;53.67;27.75;;;;;;;;;;5003159;28;20044;-86
2023/12/06 07:26:24;;;;;;;48.90;26.98;;;;;;;;;;5012871;28;20125;-88
2023/12/06 07:29:09;;;;;;;50.03;25.83;;;;;;;;;;5013023;28;20068;-86
2023/12/06 07:31:54;;;;;;;68.35;27.52;;;;;;;;;;5013085;28;20045;-87
2023/12/06 07:34:38;;;;;;;49.70;27.27;;;;;;;;;;5011558;28;20172;-87
2023/12/06 07:37:23;;;;;;;55.00;26.65;;;;;;;;;;5013088;28;20081;-87
2023/12/06 07:40:10;;;;;;;47.85;25.95;;;;;;;;;;5012301;28;20091;-87
2023/12/06 07:42:55;;;;;;;51.90;26.67;;;;;;;;;;5012597;28;20129;-86
2023/12/06 07:45:39;;;;;;;54.10;26.55;;;;;;;;;;4991865;28;20455;-86
2023/12/06 07:48:25;;;;;;;47.72;25.30;;;;;;;;;;5007103;28;20407;-86
2023/12/06 07:51:10;;;;;;;43.15;25.17;;;;;;;;;;5005565;28;20057;-87
2023/12/06 07:53:56;;;;;;;43.63;25.02;;;;;;;;;;5011637;28;20458;-85
2023/12/06 07:56:40;;;;;;;45.83;24.73;;;;;;;;;;5011852;28;20108;-85
2023/12/06 07:59:25;;;;;;;50.58;24.95;;;;;;;;;;5011448;28;20069;-85
2023/12/06 08:02:09;;;;;;;47.33;25.77;;;1.50;79.00;;;;;;5011287;28;20041;-85
2023/12/06 08:04:53;;;;;;;46.65;25.10;;;0.60;81.80;;;;;;5011869;28;20040;-86
2023/12/06 08:07:38;;;;;;;49.80;25.23;;;0.60;81.90;;;;;;5011884;28;20056;-85
2023/12/06 08:10:23;;;;;;;44.95;24.92;;;0.60;81.90;;;;;;5011296;28;20037;-86
2023/12/06 08:13:07;;;;;;;48.75;23.08;;;0.60;81.90;;;;;;5011460;28;20061;-85
2023/12/06 08:15:51;;;;;;;46.25;23.27;;;0.60;82.10;;;;;;5010931;28;20681;-85
2023/12/06 08:18:35;;;;;;;48.45;25.48;;;0.70;82.00;;;;;;4996907;28;20628;-85
2023/12/06 08:21:20;;;;;;;49.22;24.67;;;0.60;82.00;;;;;;5011379;28;20096;-85
2023/12/06 08:24:06;;;;;;;45.70;23.50;;;0.60;82.00;;;;;;4997246;28;20042;-85
2023/12/06 08:26:50;;;;;;;51.45;24.75;;;0.70;81.90;;;;;;5011545;28;20044;-85
2023/12/06 08:29:35;;;;;;;52.80;25.95;;;0.70;81.80;;;;;;5010466;28;20095;-86
2023/12/06 08:32:19;;;;;;;52.67;25.88;;;0.70;81.90;;;;;;5012126;28;20085;-85
2023/12/06 08:35:03;;;;;;;53.60;26.92;;;0.70;81.80;;;;;;4997260;28;20041;-86
2023/12/06 08:37:48;;;;;;;52.28;26.88;;;0.70;81.90;;;;;;5010364;28;20517;-86
2023/12/06 08:40:32;;;;;;;48.58;25.20;;;0.70;81.90;;;;;;5012002;28;20121;-86
2023/12/06 08:43:17;;;;;;;47.05;26.00;;;0.70;81.80;;;;;;5010783;28;20099;-85
2023/12/06 08:46:01;;;;;;;51.85;25.67;;;0.70;82.00;;;;;;5010907;28;20049;-86
2023/12/06 08:48:46;;;;;;;44.75;23.60;;;0.70;82.10;;;;;;5011357;28;20489;-86
2023/12/06 08:51:30;;;;;;;46.15;24.60;;;0.70;82.00;;;;;;5011559;28;20572;-86
2023/12/06 08:54:14;;;;;;;50.28;25.45;;;0.70;82.00;;;;;;5010861;28;20080;-86
2023/12/06 08:56:58;;;;;;;50.72;26.02;;;0.70;82.00;;;;;;5010135;28;20092;-86
2023/12/06 08:59:42;;;;;;;49.40;26.38;;;0.80;82.00;;;;;;5011215;28;20060;-85
2023/12/06 09:02:26;;;;;;;49.30;25.15;;;0.70;81.90;;;;;;4999447;28;20048;-86
2023/12/06 09:05:11;;;;;;;42.83;22.92;;;0.80;81.90;;;;;;4993877;28;20099;-86
2023/12/06 09:07:56;;;;;;;41.53;24.38;;;0.80;82.00;;;;;;4990603;28;20049;-87
2023/12/06 09:10:40;;;;;;;51.45;25.60;;;0.80;82.00;;;;;;4996334;28;20501;-87
2023/12/06 09:13:24;;;;;;;49.53;25.50;;;0.80;82.00;;;;;;5011322;28;20059;-86
2023/12/06 09:16:08;;;;;;;45.92;24.20;;;0.80;82.00;;;;;;5011524;28;20080;-86
2023/12/06 09:18:53;;;;;;;46.55;23.52;;;0.80;82.00;;;;;;5009758;28;20072;-86
2023/12/06 09:21:45;;;;;;;47.35;25.15;;;0.80;81.90;;;;;;5010445;28;20131;-86
2023/12/06 09:24:30;;;;;;;42.40;23.85;;;0.90;82.00;;;;;;4996508;28;20060;-87
2023/12/06 09:27:15;;;;;;;43.75;23.33;;;0.90;81.90;;;;;;5011286;28;20092;-85
2023/12/06 09:29:59;;;;;;;41.85;23.67;;;1.00;82.00;;;;;;4990455;28;20118;-85
2023/12/06 09:32:45;;;;;;;47.13;22.38;;;0.90;82.10;;;;;;5006795;28;20469;-86
2023/12/06 09:35:30;;;;;;;50.90;24.08;;;1.00;82.10;;;;;;5010258;28;20445;-85
2023/12/06 09:38:14;;;;;;;49.28;24.10;;;1.00;82.00;;;;;;4995719;28;20493;-86
2023/12/06 09:40:58;;;;;;;48.88;22.42;;;1.00;82.00;;;;;;5010891;28;20468;-86
2023/12/06 09:43:42;;;;;;;54.63;24.55;;;1.00;82.00;;;;;;5009861;28;20041;-86
2023/12/06 09:46:27;;;;;;;50.13;22.83;;;1.10;81.90;;;;;;4993261;28;20053;-88
2023/12/06 09:49:12;;;;;;;49.10;23.65;;;1.00;81.90;;;;;;5011187;28;20076;-87
2023/12/06 09:52:13;;;;;;;46.72;23.02;;;1.10;81.90;;;;;;5009711;28;20084;-89
2023/12/06 09:54:59;;;;;;;49.28;23.50;;;;;;;;;;5010343;28;20099;-89
2023/12/06 09:57:43;;;;;;;43.88;22.98;;;;;;;;;;5011326;28;20398;-87
2023/12/06 10:00:28;;;;;;;40.88;23.00;;;;;;;;;;5014740;28;20145;-88
2023/12/06 10:03:13;;;;;;;46.17;21.85;;;;;;;;;;5013785;28;20096;-90
2023/12/06 10:05:59;;;;;;;43.45;22.30;;;;;;;;;;5014375;28;20053;-90
2023/12/06 10:08:51;;;;;;;42.10;21.73;;;;;;;;;;5014488;28;20488;-87
2023/12/06 10:11:36;;;;;;;42.63;22.33;;;;;;;;;;5014709;28;20463;-91
2023/12/06 10:14:21;;;;;;;43.15;22.40;;;;;;;;;;5014955;28;20164;-92
2023/12/06 10:17:09;;;;;;;37.40;21.10;;;;;;;;;;5013211;28;20406;-90
2023/12/06 10:19:55;;;;;;;39.88;21.55;;;;;;;;;;5006237;28;20118;-92
2023/12/06 10:22:41;;;;;;;38.72;21.05;;;;;;;;;;5011574;28;20052;-91
2023/12/06 10:25:25;;;;;;;37.38;20.48;;;;;;;;;;5014704;28;20041;-91
2023/12/06 10:28:11;;;;;;;42.05;21.02;;;;;;;;;;5014160;28;20040;-90
2023/12/06 10:31:06;;;;;;;39.47;20.75;;;;;;;;;;5013600;28;20096;-92
2023/12/06 10:33:55;;;;;;;40.15;20.67;;;;;;;;;;5012793;28;20114;-90
2023/12/06 10:36:41;;;;;;;39.92;20.40;;;;;;;;;;5014264;28;20076;-90
2023/12/06 10:39:26;;;;;;;46.53;22.27;;;;;;;;;;5013122;28;20048;-89
2023/12/06 10:42:15;;;;;;;41.20;21.20;;;;;;;;;;5012590;28;20449;-89
2023/12/06 10:45:00;;;;;;;39.90;20.98;;;;;;;;;;5012432;28;20553;-89
2023/12/06 10:47:47;;;;;;;39.25;20.88;;;;;;;;;;5013966;28;20084;-88
2023/12/06 10:50:32;;;;;;;38.72;19.90;;;;;;;;;;5013668;28;20132;-87
2023/12/06 10:53:17;;;;;;;41.05;22.15;;;;;;;;;;5012755;28;20513;-87
2023/12/06 10:56:02;;;;;;;40.17;20.95;;;;;;;;;;5012269;28;20184;-88
2023/12/06 10:58:48;;;;;;;38.30;19.92;;;;;;;;;;5000308;28;20394;-87
2023/12/06 11:01:33;;;;;;;38.10;20.25;;;;;;;;;;5013643;28;20044;-88
2023/12/06 11:04:18;;;;;;;44.97;22.67;;;;;;;;;;5013695;28;20045;-87
2023/12/06 11:07:12;;;;;;;39.05;21.15;;;;;;;;;;5012889;28;20104;-87
2023/12/06 11:09:56;;;;;;;40.95;20.95;;;;;;;;;;5011668;28;20084;-87
2023/12/06 11:12:47;;;;;;;33.30;20.38;;;;;;;;;;5013500;28;20041;-87
2023/12/06 11:15:50;;;;;;;32.95;18.73;;;;;;;;;;5013220;28;20041;-87
2023/12/06 11:18:41;;;;;;;31.88;18.35;;;;;;;;;;5013217;28;20107;-87
2023/12/06 11:21:27;;;;;;;33.15;19.58;;;;;;;;;;5013385;28;20536;-87
2023/12/06 11:24:11;;;;;;;31.10;17.17;;;;;;;;;;5012566;28;20049;-87
2023/12/06 11:26:56;;;;;;;33.22;18.27;;;;;;;;;;5012741;28;20041;-87
2023/12/06 11:29:42;;;;;;;33.28;17.52;;;;;;;;;;5012949;28;20501;-87
2023/12/06 11:32:40;;;;;;;31.85;17.33;;;;;;;;;;5012041;28;20096;-87
2023/12/06 11:35:25;;;;;;;29.42;17.45;;;;;;;;;;5013136;28;20037;-86
2023/12/06 11:38:11;;;;;;;33.70;17.73;;;;;;;;;;5012218;28;20092;-86
2023/12/06 11:40:58;;;;;;;32.22;18.38;;;;;;;;;;5012440;28;20040;-86
2023/12/06 11:43:49;;;;;;;32.30;17.38;;;;;;;;;;5012965;28;20045;-86
2023/12/06 11:46:34;;;;;;;26.75;16.10;;;;;;;;;;5012687;28;20029;-86
2023/12/06 11:49:26;;;;;;;33.22;18.42;;;;;;;;;;5012378;28;20107;-85
2023/12/06 11:52:11;;;;;;;30.65;18.13;;;;;;;;;;5012162;28;20121;-86
2023/12/06 11:54:56;;;;;;;29.05;17.27;;;;;;;;;;5010937;28;20488;-86
2023/12/06 11:58:01;;;;;;;27.58;17.15;;;;;;;;;;5011676;28;20076;-85
2023/12/06 12:00:46;;;;;;;29.63;16.42;;;;;;;;;;5012606;28;20065;-85
2023/12/06 12:03:31;;;;;;;30.45;16.10;;;;;;;;;;5012268;28;20490;-85
2023/12/06 12:06:17;;;;;;;29.33;16.88;;;;;;;;;;5012122;28;20040;-85
2023/12/06 12:09:02;;;;;;;26.20;16.55;;;;;;;;;;5012069;28;20102;-85
2023/12/06 12:11:47;;;;;;;24.23;15.40;;;;;;;;;;5012077;28;20044;-85
2023/12/06 12:14:35;;;;;;;25.45;15.77;;;;;;;;;;5012444;28;20124;-85
2023/12/06 12:17:19;;;;;;;27.48;16.10;;;;;;;;;;5010700;28;20052;-85
2023/12/06 12:20:04;;;;;;;28.63;16.80;;;;;;;;;;5001158;28;20569;-86
2023/12/06 12:22:50;;;;;;;27.08;16.83;;;;;;;;;;5010391;28;20040;-84
2023/12/06 12:25:35;;;;;;;24.98;16.02;;;;;;;;;;5011337;28;20393;-85
2023/12/06 12:28:23;;;;;;;24.27;15.20;;;;;;;;;;5011759;28;20045;-85
2023/12/06 12:31:11;;;;;;;23.65;14.57;;;;;;;;;;5010413;28;20099;-85
2023/12/06 12:33:56;;;;;;;24.67;14.05;;;;;;;;;;5012026;28;20049;-85
2023/12/06 12:36:40;;;;;;;27.25;15.23;;;;;;;;;;5012076;28;20049;-85
2023/12/06 12:39:25;;;;;;;27.45;15.95;;;;;;;;;;5012108;28;20076;-84
2023/12/06 12:42:09;;;;;;;27.42;16.13;;;;;;;;;;5011464;28;20103;-85
2023/12/06 12:44:54;;;;;;;25.23;14.73;;;;;;;;;;5010874;28;20444;-84
2023/12/06 12:47:39;;;;;;;25.67;15.65;;;;;;;;;;5010855;28;20112;-84
2023/12/06 12:50:23;;;;;;;24.00;15.40;;;;;;;;;;5011189;28;20052;-85
2023/12/06 12:53:08;;;;;;;27.45;15.70;;;;;;;;;;5010117;28;20053;-84
2023/12/06 12:55:52;;;;;;;25.42;14.73;;;;;;;;;;5011535;28;20068;-84
2023/12/06 12:58:37;;;;;;;28.48;15.45;;;;;;;;;;5011507;28;20053;-83
2023/12/06 13:01:23;;;;;;;23.80;15.10;;;;;;;;;;5011177;28;20044;-84
2023/12/06 13:04:07;;;;;;;25.33;15.52;;;;;;;;;;5011234;28;20418;-84
2023/12/06 13:06:54;;;;;;;25.38;14.32;;;;;;;;;;5011465;28;20049;-84
2023/12/06 13:09:39;;;;;;;26.55;15.93;;;;;;;;;;5011594;28;20401;-84
2023/12/06 13:12:23;;;;;;;25.00;15.18;;;;;;;;;;5011019;28;20052;-84
2023/12/06 13:15:08;;;;;;;33.15;16.27;;;;;;;;;;5009858;28;20064;-85
2023/12/06 13:17:53;;;;;;;24.05;15.48;;;;;;;;;;5011523;28;20045;-84
2023/12/06 13:20:37;;;;;;;23.75;15.40;;;;;;;;;;4997372;28;20101;-84
2023/12/06 13:23:22;;;;;;;25.10;15.48;;;;;;;;;;5011294;28;20049;-84
2023/12/06 13:26:07;;;;;;;25.15;13.80;;;;;;;;;;5011098;28;20092;-86
2023/12/06 13:28:51;;;;;;;24.13;15.18;;;;;;;;;;5011639;28;20045;-83
2023/12/06 13:31:36;;;;;;;24.20;15.15;;;;;;;;;;5011379;28;20545;-84
2023/12/06 13:34:26;;;;;;;24.55;14.52;;;;;;;;;;5014804;28;20138;-83
2023/12/06 13:37:14;;;;;;;23.55;13.60;;;;;;;;;;5015035;28;20099;-84
2023/12/06 13:40:00;;;;;;;27.02;14.70;;;;;;;;;;5015224;28;20049;-84
2023/12/06 13:42:44;;;;;;;24.55;13.73;;;;;;;;;;5015284;28;20088;-84
2023/12/06 13:45:29;;;;;;;24.92;14.18;;;;;;;;;;5014904;28;20045;-84
2023/12/06 13:48:13;;;;;;;25.25;14.05;;;;;;;;;;5014485;28;20041;-84
2023/12/06 13:50:58;;;;;;;28.95;15.38;;;;;;;;;;5014156;28;20104;-84
2023/12/06 13:53:42;;;;;;;26.75;14.80;;;;;;;;;;5015025;28;20109;-84
2023/12/06 13:56:27;;;;;;;31.65;14.25;;;;;;;;;;5014400;28;20073;-84
2023/12/06 13:59:13;;;;;;;26.48;14.82;;;;;;;;;;5014402;28;20049;-84
2023/12/06 14:01:58;;;;;;;28.08;15.63;;;;;;;;;;5014720;28;20409;-84
2023/12/06 14:04:42;;;;;;;30.60;16.27;;;;;;;;;;5014855;28;20088;-84
2023/12/06 14:07:27;;;;;;;31.90;16.95;;;;;;;;;;5014409;28;20081;-84
2023/12/06 14:10:11;;;;;;;26.50;15.48;;;;;;;;;;5013282;28;20045;-85
2023/12/06 14:12:56;;;;;;;24.58;14.77;;;;;;;;;;5014679;28;20505;-84
2023/12/06 14:15:42;;;;;;;25.50;13.90;;;;;;;;;;5014413;28;20156;-85
2023/12/06 14:18:26;;;;;;;26.65;14.27;;;;;;;;;;5013979;28;20041;-85
2023/12/06 14:21:11;;;;;;;25.38;14.35;;;;;;;;;;5000445;28;20084;-85
2023/12/06 14:23:56;;;;;;;27.25;14.80;;;;;;;;;;5014545;28;20068;-84
2023/12/06 14:26:40;;;;;;;30.38;15.48;;;;;;;;;;5014465;28;20041;-84
2023/12/06 14:29:25;;;;;;;28.10;15.65;;;;;;;;;;5013799;28;20044;-84
2023/12/06 14:32:09;;;;;;;27.98;15.75;;;;;;;;;;5014297;28;20199;-84
2023/12/06 14:34:54;;;;;;;26.40;15.25;;;;;;;;;;5013222;28;20057;-85
2023/12/06 14:37:39;;;;;;;24.40;14.30;;;;;;;;;;5013876;28;20045;-84
2023/12/06 14:40:23;;;;;;;27.80;15.23;;;;;;;;;;5013678;28;20048;-84
2023/12/06 14:43:08;;;;;;;29.15;16.10;;;;;;;;;;5013953;28;20078;-84
2023/12/06 14:45:54;;;;;;;26.85;15.50;;;;;;;;;;5014106;28;20068;-84
2023/12/06 14:48:39;;;;;;;27.02;15.75;;;;;;;;;;5013831;28;20053;-84
2023/12/06 14:51:24;;;;;;;24.13;16.08;;;;;;;;;;5013257;28;20068;-84
2023/12/06 14:54:08;;;;;;;26.92;15.18;;;;;;;;;;5014054;28;20045;-84
2023/12/06 14:56:54;;;;;;;22.35;13.90;;;;;;;;;;5012520;28;20065;-84
2023/12/06 14:59:38;;;;;;;23.20;13.65;;;;;;;;;;5013307;28;20100;-84
2023/12/06 15:02:23;;;;;;;25.30;13.80;;;;;;;;;;5013462;28;20072;-84
2023/12/06 15:05:08;;;;;;;23.67;13.98;;;;;;;;;;5013516;28;20822;-84
2023/12/06 15:07:53;;;;;;;26.52;15.65;;;;;;;;;;5013624;28;20037;-85
2023/12/06 15:10:38;;;;;;;24.15;15.32;;;;;;;;;;4998456;28;20668;-85
2023/12/06 15:13:23;;;;;;;22.08;13.80;;;;;;;;;;5013953;28;20045;-84
2023/12/06 15:16:08;;;;;;;24.83;13.38;;;;;;;;;;5015093;28;20040;-84
2023/12/06 15:18:53;;;;;;;26.38;14.90;;;;;;;;;;5014037;28;20076;-84
2023/12/06 15:21:37;;;;;;;24.50;13.15;;;;;;;;;;5012571;28;20145;-85
2023/12/06 15:24:22;;;;;;;26.00;15.38;;;;;;;;;;5013669;28;20084;-85
2023/12/06 15:27:07;;;;;;;22.38;13.88;;;;;;;;;;5014647;28;20045;-85
2023/12/06 15:29:51;;;;;;;29.08;15.43;;;;;;;;;;5014473;28;20037;-84
2023/12/06 15:32:36;;;;;;;24.38;15.10;;;;;;;;;;5013500;28;20104;-85
2023/12/06 15:35:21;;;;;;;26.27;14.70;;;;;;;;;;5017645;28;20041;-85
2023/12/06 15:38:06;;;;;;;28.70;15.00;;;;;;;;;;5016579;28;20121;-85
2023/12/06 15:40:51;;;;;;;26.33;15.45;;;;;;;;;;5014471;28;20084;-85
2023/12/06 15:43:36;;;;;;;25.20;14.82;;;;;;;;;;5018427;28;20045;-85